• Join FlightAware (Why Join?)
  • Login
  • US Flag 
08:00PM EDT


 

Airport Tracker/Info


-or-


 

Live Flight TrackerFlight Track Log ✈ CSJ405 ✈ 26-Apr-2013 ✈ CYMX - KALB

Flight Track Log - Related Links

Times and Time Zones

All times are in EDT time to prevent confusion due to time zone crossing. See the CSJ405 flight status page for this flight to view local times or setup timezone preferences in your user account.

Time Position Orientation Groundspeed Altitude Reporting Facility
EDT Latitude Longitude Course Direction KTS MPH feet Rate Location/Type
04:28AM 45.6667 -73.9500 90° East 80 92 3,200  Level Montreal Center
04:29AM 45.6500 -73.9500 180° South 80 92 4,800 1,560 Climbing Montreal Center
04:30AM 45.6167 -73.9500 180° South 80 92 6,400 1,560 Climbing Montreal Center
04:31AM 45.6000 -73.9500 180° South 80 92 8,000 1,500 Climbing Montreal Center
04:32AM 45.3743 -74.0129 180° South  Level Estimated
04:32AM 45.5833 -73.9500 180° South 70 81 9,500  Level Montreal Center
04:33AM 45.5500 -73.9500 180° South 110 127 10,000 240 Climbing Montreal Center
04:34AM 45.5167 -73.9667 199° South 150 173 10,000  Level Montreal Center
04:35AM 45.4667 -73.9667 180° South 150 173 10,000  Level Montreal Center
04:36AM 45.4333 -73.9667 180° South 150 173 10,000  Level Montreal Center
04:37AM 45.3833 -73.9333 155° Southeast 150 173 10,000  Level Montreal Center
04:38AM 45.3500 -73.9333 180° South 150 173 10,000  Level Montreal Center
04:39AM 45.3000 -73.9500 193° South 150 173 10,000  Level Montreal Center
04:40AM 45.2667 -73.9500 180° South 150 173 10,000  Level Montreal Center
04:41AM 45.2167 -73.9500 180° South 150 173 10,000  Level Montreal Center
04:42AM 45.1833 -73.9167 145° Southeast 150 173 10,100  Climbing Montreal Center
04:43AM 45.1333 -73.9333 193° South 150 173 10,100  Level Montreal Center
04:44AM 45.1000 -73.9333 180° South 150 173 10,100  Level Montreal Center
04:45AM 45.0500 -73.9333 180° South 150 173 10,100  Level Montreal Center
04:46AM 45.0167 -73.9333 180° South 150 173 10,100  Level Montreal Center
04:47AM 44.9833 -73.9333 180° South 150 173 10,100  Level Montreal Center
04:48AM 44.9333 -73.9167 167° South 150 173 10,100  Level Montreal Center
04:49AM 44.9000 -73.9167 180° South 150 173 10,100  Level Montreal Center
04:50AM 44.8500 -73.9167 180° South 150 173 10,100  Level Montreal Center
04:50AM 44.8394 -73.9214 198° South 155 178 10,100  Level Boston Center
04:51AM 44.7997 -73.9203 179° South 155 178 10,100  Level Boston Center
04:52AM 44.7581 -73.9192 179° South 155 178 10,100  Level Boston Center
04:53AM 44.7164 -73.9153 176° South 155 178 10,100  Level Boston Center
04:54AM 44.6747 -73.9142 179° South 155 178 10,100  Level Boston Center
04:55AM 44.6333 -73.9072 173° South 155 178 10,100  Level Boston Center
04:56AM 44.5853 -73.9061 179° South 160 184 10,100  Level Boston Center
04:57AM 44.5436 -73.9022 176° South 160 184 10,100  Level Boston Center
04:58AM 44.5019 -73.9042 182° South 160 184 10,100  Level Boston Center
04:59AM 44.4583 -73.9000 176° South 160 184 10,100  Level Boston Center
05:00AM 44.4167 -73.8961 176° South 160 184 10,100  Level Boston Center
05:01AM 44.3731 -73.8950 179° South 155 178 10,100  Level Boston Center
05:02AM 44.3356 -73.8942 179° South 155 178 10,100  Level Boston Center
05:03AM 44.2958 -73.8903 176° South 155 178 10,100  Level Boston Center
05:04AM 44.2564 -73.8894 179° South 150 173 10,100  Level Boston Center
05:05AM 44.2169 -73.8856 176° South 145 167 10,100  Level Boston Center
05:06AM 44.1814 -73.8817 176° South 140 161 10,100  Level Boston Center
05:07AM 44.1419 -73.8808 179° South 140 161 10,100  Level Boston Center
05:08AM 44.1022 -73.8769 176° South 140 161 10,100  Level Boston Center
05:09AM 44.0647 -73.8761 179° South 140 161 10,100  Level Boston Center
05:10AM 44.0231 -73.8750 179° South 140 161 10,100  Level Boston Center
05:11AM 43.9836 -73.8711 176° South 140 161 10,100  Level Boston Center
05:12AM 43.9442 -73.8703 179° South 140 161 10,100  Level Boston Center
05:13AM 43.9003 -73.8692 179° South 140 161 10,100  Level Boston Center
05:14AM 43.8608 -73.8653 176° South 140 161 10,100  Level Boston Center
05:15AM 43.8192 -73.8617 176° South 140 161 10,100  Level Boston Center
05:16AM 43.7794 -73.8633 182° South 140 161 10,100  Level Boston Center
05:17AM 43.7442 -73.8628 179° South 140 161 10,100  Level Boston Center
05:18AM 43.7025 -73.8589 176° South 140 161 10,100  Level Boston Center
05:19AM 43.6628 -73.8550 176° South 140 161 10,100  Level Boston Center
05:20AM 43.6256 -73.8511 176° South 140 161 10,100  Level Boston Center
05:21AM 43.5858 -73.8533 182° South 146 168 10,100  Level Boston Center
05:22AM 43.5442 -73.8494 176° South 140 161 10,100  Level Boston Center
05:22AM 43.5442 -73.8494 176° South 147 169 10,100  Level Boston Center
05:23AM 43.5047 -73.8456 176° South 140 161 10,100  Level Boston Center
05:24AM 43.4631 -73.8417 176° South 140 161 10,100  Level Boston Center
05:25AM 43.4233 -73.8381 176° South 140 161 10,100  Level Boston Center
05:26AM 43.3775 -73.8397 182° South 140 161 10,100  Level Boston Center
05:27AM 43.3422 -73.8389 179° South 140 161 10,100 -300 Level Boston Center
05:28AM 43.2942 -73.8378 179° South 146 168 9,600 -540 Descending Boston Center
05:30AM 43.2483 -73.8369 179° South 157 181 9,000 -600 Descending Boston Center
05:30AM 43.2047 -73.8331 176° South 158 182 8,400 -780 Descending Boston Center
05:31AM 43.1650 -73.8319 179° South 163 188 7,600 -900 Descending Boston Center
05:32AM 43.1131 -73.8253 175° South 163 188 6,600 -900 Descending Boston Center
05:33AM 43.0672 -73.8214 176° South 163 188 5,800 -780 Descending Boston Center
05:34AM 43.0256 -73.8175 176° South 163 188 5,100 -720 Descending Boston Center
05:35AM 42.9756 -73.8164 179° South 158 182 4,400 -480 Descending Boston Center
05:37AM 42.9303 -73.7786 149° Southeast 153 176 4,100 -180 Descending Boston Center
05:38AM 42.8972 -73.7408 140° Southeast 147 169 4,100 -300 Level Boston Center
05:39AM 42.8581 -73.7231 162° South 157 181 3,500 -660 Descending Boston Center
05:40AM 42.8142 -73.7278 185° South 160 184 2,800 -840 Descending Boston Center
05:41AM 42.7681 -73.7383 190° South 160 184 1,900 -960 Descending Boston Center
05:42AM 42.7492 -73.7661 227° Southwest 80 92 800 -1,020 Descending Boston Center
05:44AM 42.7333 -73.8000 180° South  Level FlightAware Approximate